sensor_id;sensor_type;location;lat;lon;timestamp;P1;P2;P0
50589;PMS7003;36547;50.514;30.840;2023-07-30T00:00:17;21.00;18.00;13.40
50589;PMS7003;36547;50.514;30.840;2023-07-30T00:02:17;19.10;16.60;12.30
50589;PMS7003;36547;50.514;30.840;2023-07-30T00:03:20;19.64;18.64;12.27
50589;PMS7003;36547;50.514;30.840;2023-07-30T00:04:23;18.50;16.40;11.80
50589;PMS7003;36547;50.514;30.840;2023-07-30T00:05:25;17.70;16.70;11.70
50589;PMS7003;36547;50.514;30.840;2023-07-30T00:06:28;15.45;14.91;11.73
50589;PMS7003;36547;50.514;30.840;2023-07-30T00:07:31;18.91;16.91;12.73
50589;PMS7003;36547;50.514;30.840;2023-07-30T00:08:33;16.50;15.90;10.50
50589;PMS7003;36547;50.514;30.840;2023-07-30T00:09:36;16.50;15.40;12.40
50589;PMS7003;36547;50.514;30.840;2023-07-30T00:10:38;14.00;14.00;10.55
50589;PMS7003;36547;50.514;30.840;2023-07-30T00:11:41;18.00;16.00;12.60
50589;PMS7003;36547;50.514;30.840;2023-07-30T00:12:43;19.10;16.20;13.30
50589;PMS7003;36547;50.514;30.840;2023-07-30T00:13:46;17.90;15.40;11.70
50589;PMS7003;36547;50.514;30.840;2023-07-30T00:14:48;18.80;17.50;12.50
50589;PMS7003;36547;50.514;30.840;2023-07-30T00:15:50;18.10;16.40;13.00
50589;PMS7003;36547;50.514;30.840;2023-07-30T00:16:54;19.80;18.00;13.40
50589;PMS7003;36547;50.514;30.840;2023-07-30T00:17:57;20.80;17.70;13.30
50589;PMS7003;36547;50.514;30.840;2023-07-30T00:19:00;19.36;18.18;12.64
50589;PMS7003;36547;50.514;30.840;2023-07-30T00:20:03;18.64;16.91;13.00
50589;PMS7003;36547;50.514;30.840;2023-07-30T00:21:06;17.00;16.73;13.27
50589;PMS7003;36547;50.514;30.840;2023-07-30T00:22:08;14.60;14.60;12.10
50589;PMS7003;36547;50.514;30.840;2023-07-30T00:23:11;14.27;13.27;10.18
50589;PMS7003;36547;50.514;30.840;2023-07-30T00:24:13;14.20;13.40;10.70
50589;PMS7003;36547;50.514;30.840;2023-07-30T00:25:15;16.10;15.40;12.50
50589;PMS7003;36547;50.514;30.840;2023-07-30T00:26:17;16.80;15.40;12.50
50589;PMS7003;36547;50.514;30.840;2023-07-30T00:27:20;19.30;17.60;12.50
50589;PMS7003;36547;50.514;30.840;2023-07-30T00:28:25;14.30;13.70;11.80
50589;PMS7003;36547;50.514;30.840;2023-07-30T00:29:27;17.10;15.30;12.00
50589;PMS7003;36547;50.514;30.840;2023-07-30T00:30:30;18.20;16.20;13.40
50589;PMS7003;36547;50.514;30.840;2023-07-30T00:31:32;19.70;17.90;12.00
50589;PMS7003;36547;50.514;30.840;2023-07-30T00:32:35;17.20;14.20;11.80
50589;PMS7003;36547;50.514;30.840;2023-07-30T00:33:37;16.50;14.50;9.70
50589;PMS7003;36547;50.514;30.840;2023-07-30T00:34:40;9.20;8.30;4.40
50589;PMS7003;36547;50.514;30.840;2023-07-30T00:35:42;17.90;15.50;11.50
50589;PMS7003;36547;50.514;30.840;2023-07-30T00:36:44;18.80;15.70;12.70
50589;PMS7003;36547;50.514;30.840;2023-07-30T00:37:47;17.73;16.64;12.36
50589;PMS7003;36547;50.514;30.840;2023-07-30T00:38:50;17.82;16.09;10.64
50589;PMS7003;36547;50.514;30.840;2023-07-30T00:39:53;16.60;14.70;11.40
50589;PMS7003;36547;50.514;30.840;2023-07-30T00:40:55;18.10;16.20;11.80
50589;PMS7003;36547;50.514;30.840;2023-07-30T00:41:59;20.20;18.70;12.20
50589;PMS7003;36547;50.514;30.840;2023-07-30T00:43:01;16.30;15.60;11.50
50589;PMS7003;36547;50.514;30.840;2023-07-30T00:44:05;15.70;14.30;10.80
50589;PMS7003;36547;50.514;30.840;2023-07-30T00:45:07;16.70;16.50;12.10
50589;PMS7003;36547;50.514;30.840;2023-07-30T00:46:12;18.10;15.70;11.60
50589;PMS7003;36547;50.514;30.840;2023-07-30T00:47:15;19.90;18.50;13.20
50589;PMS7003;36547;50.514;30.840;2023-07-30T00:48:18;20.10;17.30;12.00
50589;PMS7003;36547;50.514;30.840;2023-07-30T00:49:20;17.50;16.90;12.40
50589;PMS7003;36547;50.514;30.840;2023-07-30T00:50:23;16.00;15.00;11.30
50589;PMS7003;36547;50.514;30.840;2023-07-30T00:51:26;16.73;12.82;10.64
50589;PMS7003;36547;50.514;30.840;2023-07-30T00:52:29;17.70;16.00;11.50
50589;PMS7003;36547;50.514;30.840;2023-07-30T00:53:32;18.50;15.70;12.50
50589;PMS7003;36547;50.514;30.840;2023-07-30T00:54:34;17.00;17.00;12.70
50589;PMS7003;36547;50.514;30.840;2023-07-30T00:55:37;15.90;15.90;12.90
50589;PMS7003;36547;50.514;30.840;2023-07-30T00:56:40;16.90;16.50;12.20
50589;PMS7003;36547;50.514;30.840;2023-07-30T00:57:46;20.50;16.30;11.90
50589;PMS7003;36547;50.514;30.840;2023-07-30T00:58:49;17.00;16.80;11.90
50589;PMS7003;36547;50.514;30.840;2023-07-30T00:59:54;19.70;19.10;13.30
50589;PMS7003;36547;50.514;30.840;2023-07-30T01:00:59;20.30;17.50;12.10
50589;PMS7003;36547;50.514;30.840;2023-07-30T01:02:02;20.30;17.70;12.30
50589;PMS7003;36547;50.514;30.840;2023-07-30T01:03:06;16.50;15.70;12.30
50589;PMS7003;36547;50.514;30.840;2023-07-30T01:04:09;18.27;15.55;11.36
50589;PMS7003;36547;50.514;30.840;2023-07-30T01:05:12;16.70;14.10;9.80
50589;PMS7003;36547;50.514;30.840;2023-07-30T01:06:15;15.82;14.64;11.36
50589;PMS7003;36547;50.514;30.840;2023-07-30T01:07:18;18.09;15.91;12.55
50589;PMS7003;36547;50.514;30.840;2023-07-30T01:08:20;20.10;15.30;10.60
50589;PMS7003;36547;50.514;30.840;2023-07-30T01:09:23;16.10;13.90;10.40
50589;PMS7003;36547;50.514;30.840;2023-07-30T01:10:28;19.40;16.50;12.00
50589;PMS7003;36547;50.514;30.840;2023-07-30T01:11:33;14.80;14.20;11.00
50589;PMS7003;36547;50.514;30.840;2023-07-30T01:12:38;18.30;16.00;11.90
50589;PMS7003;36547;50.514;30.840;2023-07-30T01:13:43;17.00;15.10;11.00
50589;PMS7003;36547;50.514;30.840;2023-07-30T01:14:48;17.30;16.10;10.60
50589;PMS7003;36547;50.514;30.840;2023-07-30T01:15:52;16.10;14.80;10.60
50589;PMS7003;36547;50.514;30.840;2023-07-30T01:16:55;20.40;17.40;11.60
50589;PMS7003;36547;50.514;30.840;2023-07-30T01:17:57;14.60;14.60;10.30
50589;PMS7003;36547;50.514;30.840;2023-07-30T01:19:00;18.40;16.40;11.30
50589;PMS7003;36547;50.514;30.840;2023-07-30T01:20:04;16.50;14.80;10.90
50589;PMS7003;36547;50.514;30.840;2023-07-30T01:21:07;12.70;12.70;10.10
50589;PMS7003;36547;50.514;30.840;2023-07-30T01:22:12;14.30;14.00;9.90
50589;PMS7003;36547;50.514;30.840;2023-07-30T01:23:14;15.50;13.60;10.90
50589;PMS7003;36547;50.514;30.840;2023-07-30T01:24:17;14.40;14.20;10.50
50589;PMS7003;36547;50.514;30.840;2023-07-30T01:25:19;14.70;12.90;10.50
50589;PMS7003;36547;50.514;30.840;2023-07-30T01:26:27;17.20;17.20;11.70
50589;PMS7003;36547;50.514;30.840;2023-07-30T01:27:32;14.10;13.40;10.20
50589;PMS7003;36547;50.514;30.840;2023-07-30T01:31:28;18.20;15.50;11.30
50589;PMS7003;36547;50.514;30.840;2023-07-30T01:32:33;18.10;16.20;10.90
50589;PMS7003;36547;50.514;30.840;2023-07-30T01:33:38;17.90;15.80;12.30
50589;PMS7003;36547;50.514;30.840;2023-07-30T01:34:42;16.00;14.90;10.40
50589;PMS7003;36547;50.514;30.840;2023-07-30T01:35:48;15.00;14.50;9.50
50589;PMS7003;36547;50.514;30.840;2023-07-30T01:36:51;16.70;16.20;11.90
50589;PMS7003;36547;50.514;30.840;2023-07-30T01:37:57;17.80;15.60;11.50
50589;PMS7003;36547;50.514;30.840;2023-07-30T01:39:01;16.40;15.00;11.10
50589;PMS7003;36547;50.514;30.840;2023-07-30T01:40:04;15.00;13.30;10.60
50589;PMS7003;36547;50.514;30.840;2023-07-30T01:41:08;18.10;14.90;9.90
50589;PMS7003;36547;50.514;30.840;2023-07-30T01:42:12;16.20;16.20;11.50
50589;PMS7003;36547;50.514;30.840;2023-07-30T01:43:14;3.50;3.50;0.40
50589;PMS7003;36547;50.514;30.840;2023-07-30T01:44:17;15.60;14.50;11.50
50589;PMS7003;36547;50.514;30.840;2023-07-30T01:45:21;10.60;10.40;6.00
50589;PMS7003;36547;50.514;30.840;2023-07-30T01:46:23;18.00;15.64;10.36
50589;PMS7003;36547;50.514;30.840;2023-07-30T01:47:26;18.40;16.70;11.00
50589;PMS7003;36547;50.514;30.840;2023-07-30T01:48:29;15.30;15.20;11.20
50589;PMS7003;36547;50.514;30.840;2023-07-30T01:49:31;19.50;15.90;10.80
50589;PMS7003;36547;50.514;30.840;2023-07-30T01:50:35;15.20;14.40;11.10
50589;PMS7003;36547;50.514;30.840;2023-07-30T01:51:38;16.60;15.20;10.90
50589;PMS7003;36547;50.514;30.840;2023-07-30T01:52:40;17.10;14.30;11.40
50589;PMS7003;36547;50.514;30.840;2023-07-30T01:53:43;18.10;17.50;12.20
50589;PMS7003;36547;50.514;30.840;2023-07-30T01:54:45;15.30;13.60;9.70
50589;PMS7003;36547;50.514;30.840;2023-07-30T01:55:47;18.40;17.40;12.10
50589;PMS7003;36547;50.514;30.840;2023-07-30T01:56:50;16.30;14.70;11.10
50589;PMS7003;36547;50.514;30.840;2023-07-30T01:57:53;15.70;15.00;10.40
50589;PMS7003;36547;50.514;30.840;2023-07-30T01:58:56;18.30;15.30;11.80
50589;PMS7003;36547;50.514;30.840;2023-07-30T01:59:58;17.90;14.60;11.20
50589;PMS7003;36547;50.514;30.840;2023-07-30T02:01:01;15.36;15.00;10.82
50589;PMS7003;36547;50.514;30.840;2023-07-30T02:02:04;14.40;13.70;10.30
50589;PMS7003;36547;50.514;30.840;2023-07-30T02:03:06;16.10;15.80;11.00
50589;PMS7003;36547;50.514;30.840;2023-07-30T02:04:08;16.60;16.00;12.70
50589;PMS7003;36547;50.514;30.840;2023-07-30T02:05:11;19.30;15.80;12.80
50589;PMS7003;36547;50.514;30.840;2023-07-30T02:06:16;18.50;16.70;11.50
50589;PMS7003;36547;50.514;30.840;2023-07-30T02:07:18;15.64;14.91;11.91
50589;PMS7003;36547;50.514;30.840;2023-07-30T02:08:21;17.00;15.00;10.20
50589;PMS7003;36547;50.514;30.840;2023-07-30T02:09:23;19.20;15.00;11.20
50589;PMS7003;36547;50.514;30.840;2023-07-30T02:10:26;17.90;15.10;11.30
50589;PMS7003;36547;50.514;30.840;2023-07-30T02:11:29;13.80;13.80;10.90
50589;PMS7003;36547;50.514;30.840;2023-07-30T02:12:32;16.10;15.40;11.50
50589;PMS7003;36547;50.514;30.840;2023-07-30T02:13:34;17.00;15.40;11.60
50589;PMS7003;36547;50.514;30.840;2023-07-30T02:14:36;14.50;14.50;11.20
50589;PMS7003;36547;50.514;30.840;2023-07-30T02:15:40;16.64;15.91;11.73
50589;PMS7003;36547;50.514;30.840;2023-07-30T02:16:43;17.60;15.00;11.00
50589;PMS7003;36547;50.514;30.840;2023-07-30T02:17:45;16.40;16.40;12.30
50589;PMS7003;36547;50.514;30.840;2023-07-30T02:18:48;17.30;15.20;11.80
50589;PMS7003;36547;50.514;30.840;2023-07-30T02:21:05;17.60;16.50;12.20
50589;PMS7003;36547;50.514;30.840;2023-07-30T02:22:07;19.10;17.50;12.20
50589;PMS7003;36547;50.514;30.840;2023-07-30T02:23:10;17.20;15.50;11.50
50589;PMS7003;36547;50.514;30.840;2023-07-30T02:24:13;15.20;14.00;10.90
50589;PMS7003;36547;50.514;30.840;2023-07-30T02:25:17;17.60;16.10;12.00
50589;PMS7003;36547;50.514;30.840;2023-07-30T02:26:20;16.82;15.00;11.64
50589;PMS7003;36547;50.514;30.840;2023-07-30T02:27:22;16.80;14.70;11.40
50589;PMS7003;36547;50.514;30.840;2023-07-30T02:28:25;16.70;15.30;11.60
50589;PMS7003;36547;50.514;30.840;2023-07-30T02:29:27;16.90;16.10;12.10
50589;PMS7003;36547;50.514;30.840;2023-07-30T02:30:30;17.10;15.00;11.70
50589;PMS7003;36547;50.514;30.840;2023-07-30T02:31:32;16.10;15.40;12.00
50589;PMS7003;36547;50.514;30.840;2023-07-30T02:32:35;14.64;14.64;10.55
50589;PMS7003;36547;50.514;30.840;2023-07-30T02:33:37;17.60;16.70;11.60
50589;PMS7003;36547;50.514;30.840;2023-07-30T02:34:40;15.20;14.50;9.90
50589;PMS7003;36547;50.514;30.840;2023-07-30T02:35:43;19.30;14.70;11.30
50589;PMS7003;36547;50.514;30.840;2023-07-30T02:36:46;13.90;13.90;10.50
50589;PMS7003;36547;50.514;30.840;2023-07-30T02:37:49;17.00;15.90;11.70
50589;PMS7003;36547;50.514;30.840;2023-07-30T02:38:52;17.30;16.30;12.30
50589;PMS7003;36547;50.514;30.840;2023-07-30T02:39:54;14.30;13.70;11.00
50589;PMS7003;36547;50.514;30.840;2023-07-30T02:40:56;15.90;15.20;12.00
50589;PMS7003;36547;50.514;30.840;2023-07-30T02:41:59;14.70;14.20;11.10
50589;PMS7003;36547;50.514;30.840;2023-07-30T02:43:01;16.20;14.30;11.60
50589;PMS7003;36547;50.514;30.840;2023-07-30T02:44:05;14.60;14.60;10.80
50589;PMS7003;36547;50.514;30.840;2023-07-30T02:45:07;16.90;16.40;12.00
50589;PMS7003;36547;50.514;30.840;2023-07-30T02:46:10;17.90;15.50;11.70
50589;PMS7003;36547;50.514;30.840;2023-07-30T02:47:13;19.80;17.10;12.10
50589;PMS7003;36547;50.514;30.840;2023-07-30T02:48:16;17.90;17.00;12.20
50589;PMS7003;36547;50.514;30.840;2023-07-30T02:49:18;14.80;14.60;11.10
50589;PMS7003;36547;50.514;30.840;2023-07-30T02:50:21;17.10;14.30;10.20
50589;PMS7003;36547;50.514;30.840;2023-07-30T02:51:23;14.40;14.40;10.50
50589;PMS7003;36547;50.514;30.840;2023-07-30T02:52:26;13.90;13.50;10.50
50589;PMS7003;36547;50.514;30.840;2023-07-30T02:53:28;15.70;15.20;11.40
50589;PMS7003;36547;50.514;30.840;2023-07-30T02:54:31;15.70;14.50;10.30
50589;PMS7003;36547;50.514;30.840;2023-07-30T02:55:33;16.00;14.60;11.40
50589;PMS7003;36547;50.514;30.840;2023-07-30T02:56:36;14.00;13.82;11.36
50589;PMS7003;36547;50.514;30.840;2023-07-30T02:57:39;15.09;14.73;11.09
50589;PMS7003;36547;50.514;30.840;2023-07-30T02:58:42;15.60;15.40;11.00
50589;PMS7003;36547;50.514;30.840;2023-07-30T02:59:44;19.30;16.20;11.90
50589;PMS7003;36547;50.514;30.840;2023-07-30T03:00:47;14.80;14.80;10.70
50589;PMS7003;36547;50.514;30.840;2023-07-30T03:01:49;16.00;14.60;11.20
50589;PMS7003;36547;50.514;30.840;2023-07-30T03:02:52;16.80;15.50;11.70
50589;PMS7003;36547;50.514;30.840;2023-07-30T03:03:54;17.30;15.10;11.30
50589;PMS7003;36547;50.514;30.840;2023-07-30T03:04:57;19.00;16.10;11.60
50589;PMS7003;36547;50.514;30.840;2023-07-30T03:06:00;14.60;14.60;11.10
50589;PMS7003;36547;50.514;30.840;2023-07-30T03:07:02;15.50;14.00;11.00
50589;PMS7003;36547;50.514;30.840;2023-07-30T03:08:05;15.00;14.73;11.55
50589;PMS7003;36547;50.514;30.840;2023-07-30T03:09:07;17.80;17.30;12.90
50589;PMS7003;36547;50.514;30.840;2023-07-30T03:10:10;16.20;14.60;11.70
50589;PMS7003;36547;50.514;30.840;2023-07-30T03:11:12;19.60;16.40;12.70
50589;PMS7003;36547;50.514;30.840;2023-07-30T03:12:15;14.80;14.50;11.60
50589;PMS7003;36547;50.514;30.840;2023-07-30T03:13:17;16.90;16.40;12.20
50589;PMS7003;36547;50.514;30.840;2023-07-30T03:14:20;15.80;13.60;10.80
50589;PMS7003;36547;50.514;30.840;2023-07-30T03:15:22;15.00;14.80;11.30
50589;PMS7003;36547;50.514;30.840;2023-07-30T03:16:25;17.80;15.10;11.70
50589;PMS7003;36547;50.514;30.840;2023-07-30T03:17:27;16.80;15.90;12.00
50589;PMS7003;36547;50.514;30.840;2023-07-30T03:18:30;15.60;14.50;11.30
50589;PMS7003;36547;50.514;30.840;2023-07-30T03:19:32;20.70;16.70;11.70
50589;PMS7003;36547;50.514;30.840;2023-07-30T03:20:35;17.80;15.70;12.70
50589;PMS7003;36547;50.514;30.840;2023-07-30T03:21:38;18.40;16.20;11.70
50589;PMS7003;36547;50.514;30.840;2023-07-30T03:22:41;20.80;17.80;12.30
50589;PMS7003;36547;50.514;30.840;2023-07-30T03:23:44;17.10;14.90;11.80
50589;PMS7003;36547;50.514;30.840;2023-07-30T03:24:46;19.30;16.60;12.00
50589;PMS7003;36547;50.514;30.840;2023-07-30T03:25:49;14.10;13.90;10.90
50589;PMS7003;36547;50.514;30.840;2023-07-30T03:26:52;15.20;15.10;10.80
50589;PMS7003;36547;50.514;30.840;2023-07-30T03:27:55;15.40;15.10;12.20
50589;PMS7003;36547;50.514;30.840;2023-07-30T03:28:57;14.80;13.90;11.20
50589;PMS7003;36547;50.514;30.840;2023-07-30T03:30:00;18.36;16.55;13.27
50589;PMS7003;36547;50.514;30.840;2023-07-30T03:31:03;17.50;15.20;11.00
50589;PMS7003;36547;50.514;30.840;2023-07-30T03:32:06;15.80;15.20;11.50
50589;PMS7003;36547;50.514;30.840;2023-07-30T03:33:09;18.60;16.70;12.20
50589;PMS7003;36547;50.514;30.840;2023-07-30T03:34:11;15.80;15.20;10.60
50589;PMS7003;36547;50.514;30.840;2023-07-30T03:35:14;15.70;14.80;11.40
50589;PMS7003;36547;50.514;30.840;2023-07-30T03:36:18;15.00;14.70;12.10
50589;PMS7003;36547;50.514;30.840;2023-07-30T03:37:20;17.00;15.30;11.80
50589;PMS7003;36547;50.514;30.840;2023-07-30T03:38:23;15.70;14.50;11.30
50589;PMS7003;36547;50.514;30.840;2023-07-30T03:39:25;15.00;15.00;11.20
50589;PMS7003;36547;50.514;30.840;2023-07-30T03:40:28;17.10;15.20;11.50
50589;PMS7003;36547;50.514;30.840;2023-07-30T03:41:31;15.27;15.27;12.18
50589;PMS7003;36547;50.514;30.840;2023-07-30T03:42:33;16.90;15.90;11.10
50589;PMS7003;36547;50.514;30.840;2023-07-30T03:43:36;14.70;13.20;10.60
50589;PMS7003;36547;50.514;30.840;2023-07-30T03:44:38;14.82;14.18;10.91
50589;PMS7003;36547;50.514;30.840;2023-07-30T03:45:41;14.40;14.20;9.70
50589;PMS7003;36547;50.514;30.840;2023-07-30T03:46:44;17.70;14.80;12.00
50589;PMS7003;36547;50.514;30.840;2023-07-30T03:47:46;15.45;13.36;10.82
50589;PMS7003;36547;50.514;30.840;2023-07-30T03:48:49;13.20;13.20;9.70
50589;PMS7003;36547;50.514;30.840;2023-07-30T03:49:52;14.10;14.10;11.10
50589;PMS7003;36547;50.514;30.840;2023-07-30T03:50:55;13.80;12.60;10.00
50589;PMS7003;36547;50.514;30.840;2023-07-30T03:51:57;14.09;14.09;11.18
50589;PMS7003;36547;50.514;30.840;2023-07-30T03:53:00;13.00;12.80;10.70
50589;PMS7003;36547;50.514;30.840;2023-07-30T03:54:02;13.50;13.50;11.00
50589;PMS7003;36547;50.514;30.840;2023-07-30T03:55:06;12.10;12.10;9.10
50589;PMS7003;36547;50.514;30.840;2023-07-30T03:56:08;13.40;12.80;10.80
50589;PMS7003;36547;50.514;30.840;2023-07-30T03:57:11;11.60;10.90;8.70
50589;PMS7003;36547;50.514;30.840;2023-07-30T03:58:14;11.91;11.91;9.73
50589;PMS7003;36547;50.514;30.840;2023-07-30T03:59:17;14.20;14.00;10.40
50589;PMS7003;36547;50.514;30.840;2023-07-30T04:00:19;11.80;11.50;9.00
50589;PMS7003;36547;50.514;30.840;2023-07-30T04:01:22;13.10;13.10;10.00
50589;PMS7003;36547;50.514;30.840;2023-07-30T04:02:25;12.30;11.80;9.00
50589;PMS7003;36547;50.514;30.840;2023-07-30T04:03:28;14.20;12.60;8.30
50589;PMS7003;36547;50.514;30.840;2023-07-30T04:04:30;11.10;11.10;8.80
50589;PMS7003;36547;50.514;30.840;2023-07-30T04:05:34;13.50;11.60;8.30
50589;PMS7003;36547;50.514;30.840;2023-07-30T04:06:37;12.70;11.90;9.90
50589;PMS7003;36547;50.514;30.840;2023-07-30T04:07:39;11.60;10.70;8.70
50589;PMS7003;36547;50.514;30.840;2023-07-30T04:08:43;11.00;11.00;8.80
50589;PMS7003;36547;50.514;30.840;2023-07-30T04:09:46;12.70;11.30;9.00
50589;PMS7003;36547;50.514;30.840;2023-07-30T04:10:50;10.00;9.30;7.70
50589;PMS7003;36547;50.514;30.840;2023-07-30T04:11:53;12.70;11.50;8.80
50589;PMS7003;36547;50.514;30.840;2023-07-30T04:12:55;11.70;11.10;9.20
50589;PMS7003;36547;50.514;30.840;2023-07-30T04:13:57;11.90;11.70;9.20
50589;PMS7003;36547;50.514;30.840;2023-07-30T04:15:00;10.80;9.20;7.50
50589;PMS7003;36547;50.514;30.840;2023-07-30T04:16:02;10.90;9.90;8.00
50589;PMS7003;36547;50.514;30.840;2023-07-30T04:17:05;8.80;8.80;7.00
50589;PMS7003;36547;50.514;30.840;2023-07-30T04:18:08;9.00;9.00;8.00
50589;PMS7003;36547;50.514;30.840;2023-07-30T04:19:11;9.30;9.30;7.90
50589;PMS7003;36547;50.514;30.840;2023-07-30T04:20:13;8.50;8.50;7.20
50589;PMS7003;36547;50.514;30.840;2023-07-30T04:21:16;9.50;9.50;6.90
50589;PMS7003;36547;50.514;30.840;2023-07-30T04:22:18;7.90;7.60;6.80
50589;PMS7003;36547;50.514;30.840;2023-07-30T04:23:21;10.45;8.73;6.91
50589;PMS7003;36547;50.514;30.840;2023-07-30T04:24:24;8.82;8.00;7.18
50589;PMS7003;36547;50.514;30.840;2023-07-30T04:25:26;8.90;7.90;6.30
50589;PMS7003;36547;50.514;30.840;2023-07-30T04:26:29;9.70;8.70;6.20
50589;PMS7003;36547;50.514;30.840;2023-07-30T04:27:31;7.00;6.90;5.90
50589;PMS7003;36547;50.514;30.840;2023-07-30T04:28:36;7.80;7.80;6.20
50589;PMS7003;36547;50.514;30.840;2023-07-30T04:29:39;7.10;6.30;4.70
50589;PMS7003;36547;50.514;30.840;2023-07-30T04:30:43;7.10;6.80;5.60
50589;PMS7003;36547;50.514;30.840;2023-07-30T04:31:46;7.60;7.40;5.70
50589;PMS7003;36547;50.514;30.840;2023-07-30T04:32:49;7.70;7.00;5.80
50589;PMS7003;36547;50.514;30.840;2023-07-30T04:33:52;8.09;6.91;5.00
50589;PMS7003;36547;50.514;30.840;2023-07-30T04:34:55;9.73;6.09;5.00
50589;PMS7003;36547;50.514;30.840;2023-07-30T04:35:57;6.20;5.30;4.10
50589;PMS7003;36547;50.514;30.840;2023-07-30T04:37:00;5.50;5.50;5.00
50589;PMS7003;36547;50.514;30.840;2023-07-30T04:38:03;5.10;5.10;3.90
50589;PMS7003;36547;50.514;30.840;2023-07-30T04:39:06;5.00;5.00;4.27
50589;PMS7003;36547;50.514;30.840;2023-07-30T04:40:10;7.30;7.30;5.20
50589;PMS7003;36547;50.514;30.840;2023-07-30T04:41:13;6.00;6.00;5.00
50589;PMS7003;36547;50.514;30.840;2023-07-30T04:42:17;7.20;6.70;5.50
50589;PMS7003;36547;50.514;30.840;2023-07-30T04:43:20;6.70;5.90;5.40
50589;PMS7003;36547;50.514;30.840;2023-07-30T04:44:24;5.30;5.30;4.50
50589;PMS7003;36547;50.514;30.840;2023-07-30T04:45:29;6.10;5.60;4.50
50589;PMS7003;36547;50.514;30.840;2023-07-30T04:46:31;7.00;6.20;5.30
50589;PMS7003;36547;50.514;30.840;2023-07-30T04:47:35;7.70;7.00;6.60
50589;PMS7003;36547;50.514;30.840;2023-07-30T04:48:37;8.10;8.10;6.80
50589;PMS7003;36547;50.514;30.840;2023-07-30T04:49:41;6.70;6.10;5.00
50589;PMS7003;36547;50.514;30.840;2023-07-30T04:50:44;6.90;6.90;6.30
50589;PMS7003;36547;50.514;30.840;2023-07-30T04:51:46;6.20;6.20;5.10
50589;PMS7003;36547;50.514;30.840;2023-07-30T04:52:51;6.70;5.90;5.10
50589;PMS7003;36547;50.514;30.840;2023-07-30T04:53:54;8.20;7.10;5.60
50589;PMS7003;36547;50.514;30.840;2023-07-30T04:54:56;5.80;5.80;5.10
50589;PMS7003;36547;50.514;30.840;2023-07-30T04:55:58;7.70;7.70;6.30
50589;PMS7003;36547;50.514;30.840;2023-07-30T04:57:01;8.27;7.27;6.64
50589;PMS7003;36547;50.514;30.840;2023-07-30T04:58:04;7.82;7.09;6.55
50589;PMS7003;36547;50.514;30.840;2023-07-30T04:59:07;8.70;8.70;6.80
50589;PMS7003;36547;50.514;30.840;2023-07-30T05:00:11;9.40;8.80;7.50
50589;PMS7003;36547;50.514;30.840;2023-07-30T05:01:14;9.90;9.90;7.60
50589;PMS7003;36547;50.514;30.840;2023-07-30T05:02:16;10.70;10.30;8.60
50589;PMS7003;36547;50.514;30.840;2023-07-30T05:03:19;9.60;8.70;6.80
50589;PMS7003;36547;50.514;30.840;2023-07-30T05:04:22;9.70;9.00;7.80
50589;PMS7003;36547;50.514;30.840;2023-07-30T05:05:24;8.50;7.30;6.10
50589;PMS7003;36547;50.514;30.840;2023-07-30T05:06:26;6.30;6.30;5.40
50589;PMS7003;36547;50.514;30.840;2023-07-30T05:07:30;8.70;7.80;6.90
50589;PMS7003;36547;50.514;30.840;2023-07-30T05:08:32;8.30;7.70;6.10
50589;PMS7003;36547;50.514;30.840;2023-07-30T05:09:34;9.40;8.70;7.10
50589;PMS7003;36547;50.514;30.840;2023-07-30T05:10:37;9.20;9.20;7.30
50589;PMS7003;36547;50.514;30.840;2023-07-30T05:11:39;8.60;8.00;7.20
50589;PMS7003;36547;50.514;30.840;2023-07-30T05:12:42;9.50;8.60;7.40
50589;PMS7003;36547;50.514;30.840;2023-07-30T05:13:44;7.70;7.70;5.90
50589;PMS7003;36547;50.514;30.840;2023-07-30T05:14:46;6.70;6.70;5.60
50589;PMS7003;36547;50.514;30.840;2023-07-30T05:15:49;9.30;9.30;7.10
50589;PMS7003;36547;50.514;30.840;2023-07-30T05:16:52;10.90;9.20;7.40
50589;PMS7003;36547;50.514;30.840;2023-07-30T05:17:55;3.55;3.55;2.18
50589;PMS7003;36547;50.514;30.840;2023-07-30T05:18:57;8.50;7.60;6.60
50589;PMS7003;36547;50.514;30.840;2023-07-30T05:20:00;10.30;9.60;8.00
50589;PMS7003;36547;50.514;30.840;2023-07-30T05:21:02;9.20;8.70;7.10
50589;PMS7003;36547;50.514;30.840;2023-07-30T05:22:05;9.60;9.00;7.30
50589;PMS7003;36547;50.514;30.840;2023-07-30T05:23:07;9.10;8.00;7.00
50589;PMS7003;36547;50.514;30.840;2023-07-30T05:24:10;12.00;10.60;8.30
50589;PMS7003;36547;50.514;30.840;2023-07-30T05:25:12;11.70;10.30;9.00
50589;PMS7003;36547;50.514;30.840;2023-07-30T05:26:14;11.20;11.20;9.50
50589;PMS7003;36547;50.514;30.840;2023-07-30T05:27:17;10.90;10.90;8.90
50589;PMS7003;36547;50.514;30.840;2023-07-30T05:28:19;12.10;12.10;9.90
50589;PMS7003;36547;50.514;30.840;2023-07-30T05:29:22;8.40;8.40;6.00
50589;PMS7003;36547;50.514;30.840;2023-07-30T05:30:24;11.00;10.20;7.80
50589;PMS7003;36547;50.514;30.840;2023-07-30T05:31:26;9.20;9.00;6.90
50589;PMS7003;36547;50.514;30.840;2023-07-30T05:32:30;9.30;8.30;6.40
50589;PMS7003;36547;50.514;30.840;2023-07-30T05:33:33;12.30;9.70;7.70
50589;PMS7003;36547;50.514;30.840;2023-07-30T05:34:36;8.91;8.27;7.18
50589;PMS7003;36547;50.514;30.840;2023-07-30T05:35:38;9.00;8.10;6.50
50589;PMS7003;36547;50.514;30.840;2023-07-30T05:36:41;8.18;8.18;6.64
50589;PMS7003;36547;50.514;30.840;2023-07-30T05:37:43;10.30;9.80;7.30
50589;PMS7003;36547;50.514;30.840;2023-07-30T05:38:46;9.20;9.20;7.70
50589;PMS7003;36547;50.514;30.840;2023-07-30T05:39:48;12.36;9.82;7.82
50589;PMS7003;36547;50.514;30.840;2023-07-30T05:40:51;11.00;9.82;7.91
50589;PMS7003;36547;50.514;30.840;2023-07-30T05:41:54;10.50;10.00;8.00
50589;PMS7003;36547;50.514;30.840;2023-07-30T05:42:56;8.90;7.90;5.40
50589;PMS7003;36547;50.514;30.840;2023-07-30T05:43:58;12.30;12.30;9.40
50589;PMS7003;36547;50.514;30.840;2023-07-30T05:45:01;10.10;10.10;7.90
50589;PMS7003;36547;50.514;30.840;2023-07-30T05:46:03;10.00;9.00;7.20
50589;PMS7003;36547;50.514;30.840;2023-07-30T05:47:06;9.40;9.10;7.90
50589;PMS7003;36547;50.514;30.840;2023-07-30T05:48:08;12.10;11.50;8.20
50589;PMS7003;36547;50.514;30.840;2023-07-30T05:49:13;10.40;10.40;7.70
50589;PMS7003;36547;50.514;30.840;2023-07-30T05:50:16;8.20;8.20;6.60
50589;PMS7003;36547;50.514;30.840;2023-07-30T05:51:18;8.60;8.60;6.50
50589;PMS7003;36547;50.514;30.840;2023-07-30T05:52:21;10.10;9.40;7.80
50589;PMS7003;36547;50.514;30.840;2023-07-30T05:53:24;9.64;8.73;7.55
50589;PMS7003;36547;50.514;30.840;2023-07-30T05:54:26;9.60;9.60;6.70
50589;PMS7003;36547;50.514;30.840;2023-07-30T05:55:29;9.10;8.30;7.40
50589;PMS7003;36547;50.514;30.840;2023-07-30T05:56:32;7.90;7.90;7.00